KMSY/MSY METAR and TAF weather

Enter ICAO airport designator
Station Type Date Time Source
KMSY METAR 2020/07/12 03:53 UTC NOAA

KMSY 120353Z 34003KT 10SM SCT045 SCT250 33/27 A2995 RMK AO2 LTG DSNT SE SLP145 OCNL LTGIC DSNT SE-S CB DSNT SE-S T03280272


Station Type Date Time Source
KMSY Decoded METAR 2020/07/12 03:53 UTC NOAA

NEW ORLEANS INTERNATIONAL AIRPORT, LA, United States (KMSY) 30-00N 90-15W 5M
Jul 11, 2020 - 11:53 PM EDT / 2020.07.12 0353 UTC
Wind: from the NNW (340 degrees) at 3 MPH (3 KT):0
Visibility: 10 mile(s):0
Sky conditions: partly cloudy
Weather: Cumulonimbus clouds, lightning observed
Temperature: 91.0 F (32.8 C)
Heat index: 110.5 F (43.6 C):1
Dew Point: 81.0 F (27.2 C)
Relative Humidity: 72%
Pressure (altimeter): 29.95 in. Hg (1014 hPa)
ob: KMSY 120353Z 34003KT 10SM SCT045 SCT250 33/27 A2995 RMK AO2 LTG DSNT SE SLP145 OCNL LTGIC DSNT SE-S CB DSNT SE-S T03280272
cycle: 4

Station Type Date Time Source
KMSY TAF 2020/07/11 18:42 UTC NOAA

TAF KMSY 111739Z 1118/1224 33008KT P6SM SCT025
FM112000 33008KT P6SM VCTS SCT030CB
FM120100 VRB04KT P6SM SCT250
FM121400 31007KT P6SM SCT025

Example: see airport list